Time;durP1;ratioP1;P1;durP2;ratioP2;P2;SDS_P1;SDS_P2;PMS_P1;PMS_P2;Temp;Humidity;BMP_temperature;BMP_pressure;BME280_temperature;BME280_humidity;BME280_pressure;Samples;Min_cycle;Max_cycle;Signal;HPM_P1;HPM_P2
2022/12/12 00:01:54;;;;;;;2.05;1.95;;;-0.60;99.90;;;;;;4931589;28;20253;-62
2022/12/12 00:04:21;;;;;;;2.30;2.20;;;-0.60;99.90;;;;;;4937863;28;20287;-64
2022/12/12 00:06:48;;;;;;;1.90;1.80;;;-0.50;99.90;;;;;;4930894;28;20250;-63
2022/12/12 00:09:16;;;;;;;2.00;1.90;;;-0.50;99.90;;;;;;4931752;28;20214;-62
2022/12/12 00:11:43;;;;;;;2.00;1.90;;;-0.50;99.90;;;;;;4935289;28;20212;-62
2022/12/12 00:14:10;;;;;;;2.03;1.92;;;-0.40;99.90;;;;;;4931239;28;20231;-63
2022/12/12 00:16:37;;;;;;;1.80;1.70;;;-0.40;99.90;;;;;;4931383;28;20302;-63
2022/12/12 00:19:04;;;;;;;1.70;1.60;;;-0.50;99.90;;;;;;4931682;28;20344;-63
2022/12/12 00:21:31;;;;;;;2.00;1.90;;;-0.40;99.90;;;;;;4932288;29;20204;-61
2022/12/12 00:23:58;;;;;;;1.90;1.80;;;-0.40;99.90;;;;;;4929998;28;20204;-62
2022/12/12 00:26:30;;;;;;;1.60;1.60;;;-0.40;99.90;;;;;;4929634;28;20224;-62
2022/12/12 00:28:58;;;;;;;1.90;1.80;;;-0.40;99.90;;;;;;4931937;28;20291;-61
2022/12/12 00:31:26;;;;;;;1.73;1.63;;;-0.40;99.90;;;;;;4928749;28;20271;-61
2022/12/12 00:33:53;;;;;;;1.83;1.73;;;-0.40;99.90;;;;;;4931097;28;20867;-62
2022/12/12 00:36:22;;;;;;;1.50;1.50;;;-0.40;99.90;;;;;;4932643;28;20211;-62
2022/12/12 00:38:50;;;;;;;2.00;1.90;;;-0.40;99.90;;;;;;4934812;28;20208;-62
2022/12/12 00:41:17;;;;;;;1.60;1.50;;;-0.40;99.90;;;;;;4931957;28;20239;-62
2022/12/12 00:43:45;;;;;;;1.80;1.70;;;-0.40;99.90;;;;;;4928855;29;20214;-62
2022/12/12 00:46:14;;;;;;;2.00;1.90;;;-0.40;99.90;;;;;;4932202;29;20235;-63
2022/12/12 00:48:41;;;;;;;1.60;1.50;;;-0.40;99.90;;;;;;4930933;28;20211;-63
2022/12/12 00:51:10;;;;;;;1.70;1.60;;;-0.40;99.90;;;;;;4928930;28;20212;-62
2022/12/12 00:53:38;;;;;;;1.60;1.50;;;-0.40;99.90;;;;;;4931105;28;20283;-61
2022/12/12 00:56:06;;;;;;;1.45;1.45;;;-0.40;99.90;;;;;;4930840;29;20204;-63
2022/12/12 00:58:33;;;;;;;1.60;1.50;;;-0.50;99.90;;;;;;4930815;29;20291;-63
2022/12/12 01:01:05;;;;;;;1.67;1.57;;;-0.50;99.90;;;;;;4945774;28;20210;-61
2022/12/12 01:03:33;;;;;;;1.60;1.50;;;-0.50;99.90;;;;;;4932364;28;20234;-60
2022/12/12 01:06:00;;;;;;;1.40;1.40;;;-0.50;99.90;;;;;;4931474;29;20208;-63
2022/12/12 01:08:27;;;;;;;1.67;1.58;;;-0.50;99.90;;;;;;4930422;28;20231;-61
2022/12/12 01:10:53;;;;;;;1.20;1.20;;;-0.60;99.90;;;;;;4931568;28;20522;-62
2022/12/12 01:13:21;;;;;;;1.30;1.30;;;-0.70;99.90;;;;;;4937668;28;20298;-62
2022/12/12 01:15:48;;;;;;;1.67;1.57;;;-0.70;99.90;;;;;;4945011;29;20278;-62
2022/12/12 01:18:17;;;;;;;1.65;1.55;;;-0.70;99.90;;;;;;4930334;28;20224;-61
2022/12/12 01:20:44;;;;;;;1.17;1.17;;;-0.70;99.90;;;;;;4930303;29;20357;-63
2022/12/12 01:23:11;;;;;;;1.50;1.40;;;-0.70;99.90;;;;;;4929256;28;20208;-63
2022/12/12 01:25:38;;;;;;;1.40;1.40;;;-0.80;99.90;;;;;;4929799;28;20234;-62
2022/12/12 01:28:05;;;;;;;1.50;1.40;;;-0.80;99.90;;;;;;4923670;28;20235;-62
2022/12/12 01:30:33;;;;;;;1.30;1.30;;;-0.80;99.90;;;;;;4926633;28;20226;-62
2022/12/12 01:32:59;;;;;;;1.02;1.02;;;-0.70;99.90;;;;;;4927731;28;20679;-62
2022/12/12 01:35:28;;;;;;;1.20;1.20;;;-0.70;99.90;;;;;;4930133;28;20224;-61
2022/12/12 01:37:54;;;;;;;1.50;1.40;;;-0.70;99.90;;;;;;4930323;28;20238;-61
2022/12/12 01:40:24;;;;;;;1.20;1.20;;;-0.70;99.90;;;;;;4930026;28;20208;-61
2022/12/12 01:42:51;;;;;;;1.33;1.33;;;-0.70;99.90;;;;;;4927109;29;20476;-62
2022/12/12 01:46:09;;;;;;;1.03;1.03;;;-0.70;99.90;;;;;;4928582;28;20204;-62
2022/12/12 01:48:40;;;;;;;1.00;1.00;;;-0.70;99.90;;;;;;4864769;29;20207;-62
2022/12/12 01:51:14;;;;;;;1.13;1.10;;;-0.70;99.90;;;;;;4912376;29;20283;-61
2022/12/12 01:53:42;;;;;;;1.00;1.00;;;-0.80;99.90;;;;;;4926664;28;20219;-63
2022/12/12 01:56:11;;;;;;;1.50;1.40;;;-0.90;99.90;;;;;;4930112;28;20271;-62
2022/12/12 01:58:40;;;;;;;1.10;1.10;;;-1.10;99.90;;;;;;4930198;29;20629;-61
2022/12/12 02:01:07;;;;;;;1.23;1.23;;;-1.20;99.90;;;;;;4931128;29;20208;-62
2022/12/12 02:03:35;;;;;;;1.20;1.20;;;-1.20;99.90;;;;;;4933189;28;20201;-62
2022/12/12 02:06:05;;;;;;;1.20;1.20;;;-1.20;99.90;;;;;;4933032;28;20208;-62
2022/12/12 02:08:34;;;;;;;1.10;1.10;;;-1.20;99.90;;;;;;4933223;29;20224;-62
2022/12/12 02:11:01;;;;;;;1.15;1.15;;;-1.30;99.90;;;;;;4933009;28;20571;-62
2022/12/12 02:13:31;;;;;;;1.20;1.20;;;-1.30;99.90;;;;;;4931574;28;20333;-63
2022/12/12 02:16:06;;;;;;;1.20;1.20;;;-1.40;99.90;;;;;;4930520;28;20224;-62
2022/12/12 02:18:40;;;;;;;1.00;1.00;;;-1.50;99.90;;;;;;4932850;28;20683;-62
2022/12/12 02:21:16;;;;;;;1.20;1.20;;;-1.60;99.90;;;;;;4930854;28;20297;-62
2022/12/12 02:24:26;;;;;;;1.47;1.40;;;-1.60;99.90;;;;;;4929660;29;20204;-62
2022/12/12 02:27:29;;;;;;;1.30;1.30;;;-1.70;99.90;;;;;;4932437;29;20232;-62
2022/12/12 02:30:15;;;;;;;1.10;1.10;;;-1.70;99.90;;;;;;4952157;29;20210;-62
2022/12/12 02:33:11;;;;;;;0.98;0.98;;;-1.80;99.90;;;;;;4931828;28;20216;-62
2022/12/12 02:35:51;;;;;;;1.00;1.00;;;-1.80;99.90;;;;;;4932315;29;20242;-62
2022/12/12 02:38:27;;;;;;;1.17;1.17;;;-1.80;99.90;;;;;;4932762;29;20245;-62
2022/12/12 02:41:03;;;;;;;0.85;0.85;;;-1.80;99.90;;;;;;4935636;28;20210;-62
2022/12/12 02:43:38;;;;;;;1.00;1.00;;;-1.70;99.90;;;;;;4936143;29;20214;-61
2022/12/12 02:46:12;;;;;;;1.03;1.03;;;-1.70;99.90;;;;;;4931964;29;20605;-64
2022/12/12 02:48:46;;;;;;;1.00;1.00;;;-1.70;99.90;;;;;;4933449;29;20215;-62
2022/12/12 02:51:14;;;;;;;1.00;1.00;;;-1.70;99.90;;;;;;4932837;29;20834;-62
2022/12/12 02:53:40;;;;;;;1.00;1.00;;;-1.60;99.90;;;;;;4932189;29;20215;-62
2022/12/12 02:56:29;;;;;;;1.00;1.00;;;-1.60;99.90;;;;;;4932778;28;20224;-62
2022/12/12 02:58:57;;;;;;;0.93;0.93;;;-1.60;99.90;;;;;;4931798;29;20207;-62
2022/12/12 03:01:34;;;;;;;1.00;1.00;;;-1.60;99.90;;;;;;4930496;28;20201;-62
2022/12/12 03:10:00;;;;;;;0.90;0.90;;;-1.40;99.90;;;;;;4932250;29;20216;-62
2022/12/12 03:12:39;;;;;;;1.10;1.10;;;-1.40;99.90;;;;;;4932179;28;20208;-62
2022/12/12 03:15:16;;;;;;;1.00;1.00;;;-1.50;99.90;;;;;;4933441;28;20232;-61
2022/12/12 03:17:48;;;;;;;1.00;1.00;;;-1.60;99.90;;;;;;4932586;29;20232;-63
2022/12/12 03:20:19;;;;;;;0.90;0.90;;;-1.60;99.90;;;;;;4950897;29;20228;-63
2022/12/12 03:22:54;;;;;;;1.00;1.00;;;-1.60;99.90;;;;;;4937120;29;20706;-63
2022/12/12 03:25:27;;;;;;;1.00;1.00;;;-1.60;99.90;;;;;;4931872;28;20208;-62
2022/12/12 03:27:58;;;;;;;1.37;1.37;;;-1.60;99.90;;;;;;4931847;29;20339;-62
2022/12/12 03:30:29;;;;;;;0.90;0.90;;;-1.60;99.90;;;;;;4932122;29;20205;-62
2022/12/12 03:32:59;;;;;;;1.00;1.00;;;-1.60;99.90;;;;;;4931696;28;20204;-61
2022/12/12 03:35:29;;;;;;;0.90;0.90;;;-1.60;99.90;;;;;;4932356;29;20220;-62
2022/12/12 03:38:01;;;;;;;0.83;0.83;;;-1.60;99.90;;;;;;4932337;29;20301;-62
2022/12/12 03:40:33;;;;;;;1.10;1.10;;;-1.70;99.90;;;;;;4932476;29;20638;-62
2022/12/12 03:43:06;;;;;;;1.10;1.10;;;-1.70;99.90;;;;;;4931270;29;20750;-62
2022/12/12 03:45:42;;;;;;;1.10;1.10;;;-1.70;99.90;;;;;;4925400;29;20212;-61
2022/12/12 03:48:13;;;;;;;1.10;1.10;;;-1.70;99.90;;;;;;4932193;29;20235;-63
2022/12/12 03:50:44;;;;;;;1.00;1.00;;;-1.80;99.90;;;;;;4932017;29;20208;-63
2022/12/12 03:53:17;;;;;;;1.00;1.00;;;-1.80;99.90;;;;;;4931355;29;20216;-62
2022/12/12 03:55:48;;;;;;;0.80;0.80;;;-1.90;99.90;;;;;;4932442;28;20251;-62
2022/12/12 03:58:21;;;;;;;1.00;1.00;;;-1.90;99.90;;;;;;4931827;29;20232;-63
2022/12/12 04:00:51;;;;;;;1.00;1.00;;;-1.90;99.90;;;;;;4926983;28;20205;-62
2022/12/12 04:03:23;;;;;;;1.07;1.07;;;-1.90;99.90;;;;;;4936630;29;20689;-61
2022/12/12 04:12:57;;;;;;;1.10;1.10;;;-2.00;99.90;;;;;;4928460;29;20210;-62
2022/12/12 04:14:34;;;;;;;1.02;1.02;;;-2.10;99.90;;;;;;4930276;29;20242;-62
2022/12/12 04:17:05;;;;;;;1.20;1.20;;;-2.10;99.90;;;;;;4932108;29;20224;-62
2022/12/12 04:25:25;;;;;;;1.02;1.02;;;-2.10;99.90;;;;;;4931089;29;20327;-62
2022/12/12 04:27:56;;;;;;;0.90;0.90;;;-2.00;99.90;;;;;;4931644;29;20224;-62
2022/12/12 04:30:23;;;;;;;1.20;1.20;;;-2.10;99.90;;;;;;4931502;28;20210;-62
2022/12/12 04:33:01;;;;;;;1.00;1.00;;;-2.10;99.90;;;;;;4928727;29;20200;-62
2022/12/12 04:35:32;;;;;;;1.02;1.02;;;-2.30;99.90;;;;;;4923507;28;20255;-62
2022/12/12 04:38:04;;;;;;;1.23;1.13;;;-2.30;99.90;;;;;;4930920;29;20581;-63
2022/12/12 04:40:32;;;;;;;1.13;1.13;;;-2.40;99.90;;;;;;4923834;29;20695;-61
2022/12/12 04:43:03;;;;;;;1.08;1.08;;;-2.40;99.90;;;;;;4931843;29;20557;-62
2022/12/12 04:45:34;;;;;;;1.00;1.00;;;-2.40;99.90;;;;;;4925118;29;20262;-62
2022/12/12 04:48:06;;;;;;;1.00;1.00;;;-2.40;99.90;;;;;;4932159;29;20223;-62
2022/12/12 04:50:34;;;;;;;1.00;1.00;;;-2.30;99.90;;;;;;4925269;28;20217;-62
2022/12/12 04:53:04;;;;;;;0.80;0.80;;;-2.20;99.90;;;;;;4931826;29;20297;-62
2022/12/12 04:55:34;;;;;;;0.80;0.80;;;-2.20;99.90;;;;;;4921203;29;20231;-61
2022/12/12 04:58:02;;;;;;;0.90;0.90;;;-2.10;99.90;;;;;;4932123;29;20230;-62
2022/12/12 05:00:35;;;;;;;0.83;0.83;;;-2.10;99.90;;;;;;4924418;29;20200;-62
2022/12/12 05:03:10;;;;;;;1.05;1.05;;;-2.00;99.90;;;;;;4930899;29;20204;-63
2022/12/12 05:05:42;;;;;;;0.77;0.77;;;-2.00;99.90;;;;;;4924459;28;20321;-61
2022/12/12 05:08:13;;;;;;;0.98;0.98;;;-1.90;99.90;;;;;;4931618;29;20232;-63
2022/12/12 05:10:43;;;;;;;1.00;1.00;;;-1.90;99.90;;;;;;4923676;29;20325;-62
2022/12/12 05:13:16;;;;;;;0.80;0.80;;;-1.80;99.90;;;;;;4931188;29;20699;-62
2022/12/12 05:15:44;;;;;;;0.90;0.90;;;-1.70;99.90;;;;;;4925925;29;20700;-61
2022/12/12 05:18:13;;;;;;;0.80;0.80;;;-1.70;99.90;;;;;;4930546;29;20232;-63
2022/12/12 05:20:40;;;;;;;1.00;1.00;;;-1.60;99.90;;;;;;4930637;29;20211;-63
2022/12/12 05:23:07;;;;;;;0.90;0.90;;;-1.60;99.90;;;;;;4930262;29;20212;-62
2022/12/12 05:25:33;;;;;;;0.97;0.90;;;-1.60;99.90;;;;;;4931899;29;20200;-62
2022/12/12 05:28:00;;;;;;;0.97;0.97;;;-1.50;99.90;;;;;;4937559;28;20583;-62
2022/12/12 05:30:27;;;;;;;0.90;0.90;;;-1.60;99.90;;;;;;4930701;29;20208;-63
2022/12/12 05:32:55;;;;;;;1.20;1.20;;;-1.70;99.90;;;;;;4930208;28;20286;-63
2022/12/12 05:35:23;;;;;;;1.00;1.00;;;-1.70;99.90;;;;;;4932661;28;20238;-61
2022/12/12 05:37:50;;;;;;;1.10;1.10;;;-1.80;99.90;;;;;;4934378;28;20235;-63
2022/12/12 05:40:18;;;;;;;1.10;1.10;;;-1.80;99.90;;;;;;4933862;29;20211;-62
2022/12/12 05:42:45;;;;;;;1.20;1.20;;;-1.80;99.90;;;;;;4933394;29;20243;-61
2022/12/12 05:45:12;;;;;;;1.00;1.00;;;-1.80;99.90;;;;;;4934670;28;20542;-61
2022/12/12 05:47:39;;;;;;;0.93;0.93;;;-1.80;99.90;;;;;;4937367;29;20239;-62
2022/12/12 05:50:07;;;;;;;0.73;0.73;;;-1.80;99.90;;;;;;4932739;29;20230;-61
2022/12/12 05:52:35;;;;;;;1.00;1.00;;;-1.80;99.90;;;;;;4934702;29;20204;-62
2022/12/12 05:55:02;;;;;;;1.00;1.00;;;-1.70;99.90;;;;;;4936146;28;20235;-61
2022/12/12 05:57:29;;;;;;;1.30;1.20;;;-1.70;99.90;;;;;;4925294;28;20227;-63
2022/12/12 05:59:56;;;;;;;1.10;1.10;;;-1.60;99.90;;;;;;4934011;29;20245;-62
2022/12/12 06:02:22;;;;;;;1.00;1.00;;;-1.60;99.90;;;;;;4934473;28;20212;-61
2022/12/12 06:04:49;;;;;;;1.00;1.00;;;-1.60;99.90;;;;;;4934183;29;20204;-63
2022/12/12 06:07:16;;;;;;;1.10;1.10;;;-1.60;99.90;;;;;;4934688;28;20707;-62
2022/12/12 06:09:44;;;;;;;1.10;1.10;;;-1.60;99.90;;;;;;4935166;29;20212;-61
2022/12/12 06:12:11;;;;;;;1.13;1.13;;;-1.70;99.90;;;;;;4934177;29;20210;-62
2022/12/12 06:14:38;;;;;;;1.10;1.10;;;-1.70;99.90;;;;;;4932278;29;20306;-62
2022/12/12 06:17:05;;;;;;;1.37;1.30;;;-1.60;99.90;;;;;;4933010;29;20224;-62
2022/12/12 06:19:31;;;;;;;1.02;1.02;;;-1.50;99.90;;;;;;4933640;29;20200;-62
2022/12/12 06:21:58;;;;;;;1.20;1.20;;;-1.60;99.90;;;;;;4933156;28;20585;-66
2022/12/12 06:24:25;;;;;;;1.47;1.10;;;-1.50;99.90;;;;;;4957556;28;20687;-61
2022/12/12 06:26:54;;;;;;;1.10;1.10;;;-1.50;99.90;;;;;;4926041;28;20216;-62
2022/12/12 06:29:21;;;;;;;1.13;1.13;;;-1.50;99.90;;;;;;4925398;29;20637;-63
2022/12/12 06:31:48;;;;;;;0.90;0.90;;;-1.50;99.90;;;;;;4925735;28;20211;-62
2022/12/12 06:34:15;;;;;;;1.00;1.00;;;-1.50;99.90;;;;;;4932496;29;20287;-61
2022/12/12 06:36:43;;;;;;;1.00;1.00;;;-1.40;99.90;;;;;;4932626;29;20310;-61
2022/12/12 06:39:10;;;;;;;1.13;1.13;;;-1.40;99.90;;;;;;4931895;28;20661;-62
2022/12/12 06:41:38;;;;;;;1.20;1.20;;;-1.40;99.90;;;;;;4932167;28;20875;-62
2022/12/12 06:44:07;;;;;;;1.20;1.20;;;-1.50;99.90;;;;;;4930216;28;20208;-62
2022/12/12 06:46:33;;;;;;;1.37;1.30;;;-1.40;99.90;;;;;;4932497;29;20267;-63
2022/12/12 06:49:01;;;;;;;1.20;1.20;;;-1.40;99.90;;;;;;4932577;28;20201;-63
2022/12/12 06:51:32;;;;;;;1.10;1.10;;;-1.50;99.90;;;;;;4927071;29;20235;-63
2022/12/12 06:53:59;;;;;;;1.17;1.17;;;-1.60;99.90;;;;;;4933962;28;20208;-62
2022/12/12 06:56:27;;;;;;;1.10;1.10;;;-1.60;99.90;;;;;;4935718;29;20311;-62
2022/12/12 06:58:55;;;;;;;1.10;1.10;;;-1.60;99.90;;;;;;4935516;29;20208;-62
2022/12/12 07:01:24;;;;;;;1.00;1.00;;;-1.60;99.90;;;;;;4935579;28;20215;-62
2022/12/12 07:03:52;;;;;;;1.00;1.00;;;-1.60;99.90;;;;;;4935973;29;20200;-61
2022/12/12 07:06:22;;;;;;;0.93;0.93;;;-1.60;99.90;;;;;;4938750;28;20232;-63
2022/12/12 07:08:49;;;;;;;1.13;1.13;;;-1.60;99.90;;;;;;4940130;28;20208;-62
2022/12/12 07:11:18;;;;;;;0.90;0.90;;;-1.60;99.90;;;;;;4938309;28;20211;-61
2022/12/12 07:13:45;;;;;;;1.30;1.20;;;-1.60;99.90;;;;;;4938663;29;20208;-63
2022/12/12 07:16:12;;;;;;;1.10;1.10;;;-1.60;99.90;;;;;;4939138;29;20220;-63
2022/12/12 07:18:40;;;;;;;1.10;1.10;;;-1.60;99.90;;;;;;4939012;29;20204;-62
2022/12/12 07:21:08;;;;;;;1.33;1.23;;;-1.70;99.90;;;;;;4934204;28;20204;-63
2022/12/12 07:23:36;;;;;;;1.20;1.20;;;-1.70;99.90;;;;;;4933028;29;20235;-62
2022/12/12 07:26:04;;;;;;;1.40;1.40;;;-1.80;99.90;;;;;;4933341;28;20236;-62
2022/12/12 07:28:31;;;;;;;1.93;1.80;;;-1.80;99.90;;;;;;4927492;29;20236;-62
2022/12/12 07:31:00;;;;;;;1.63;1.50;;;-1.80;99.90;;;;;;4933903;28;20211;-62
2022/12/12 07:33:27;;;;;;;1.60;1.50;;;-1.80;99.90;;;;;;4948373;28;20204;-62
2022/12/12 07:35:59;;;;;;;1.60;1.50;;;-1.80;99.90;;;;;;4947439;29;20232;-62
2022/12/12 07:38:26;;;;;;;1.73;1.63;;;-1.90;99.90;;;;;;4940148;28;20238;-63
2022/12/12 07:40:53;;;;;;;1.60;1.50;;;-2.00;99.90;;;;;;4933201;29;20200;-62
2022/12/12 07:43:19;;;;;;;1.42;1.40;;;-2.00;99.90;;;;;;4932996;29;20208;-61
2022/12/12 07:45:47;;;;;;;1.70;1.60;;;-2.10;99.90;;;;;;4933443;29;20212;-63
2022/12/12 07:48:14;;;;;;;1.33;1.33;;;-2.20;99.90;;;;;;4932342;29;20670;-64
2022/12/12 07:50:42;;;;;;;1.13;1.13;;;-2.10;99.90;;;;;;4932202;28;20559;-63
2022/12/12 07:53:10;;;;;;;1.33;1.27;;;-2.20;99.90;;;;;;4932019;29;20219;-61
2022/12/12 07:55:39;;;;;;;1.08;1.08;;;-2.20;99.90;;;;;;4932181;28;20274;-63
2022/12/12 07:58:06;;;;;;;1.27;1.17;;;-2.20;99.90;;;;;;4931290;28;20250;-64
2022/12/12 08:00:33;;;;;;;1.20;1.20;;;-2.30;99.90;;;;;;4931551;29;20299;-63
2022/12/12 08:03:00;;;;;;;1.50;1.40;;;-2.10;99.90;;;;;;4933032;29;20208;-62
2022/12/12 08:05:27;;;;;;;1.60;1.50;;;-2.10;99.90;;;;;;4933714;28;20286;-61
2022/12/12 08:07:54;;;;;;;1.20;1.17;;;-2.00;99.90;;;;;;4935885;28;20224;-64
2022/12/12 08:10:22;;;;;;;1.20;1.20;;;-2.00;99.90;;;;;;4933720;29;20206;-62
2022/12/12 08:12:49;;;;;;;1.20;1.20;;;-1.90;99.90;;;;;;4933286;29;20211;-62
2022/12/12 08:15:17;;;;;;;1.30;1.20;;;-1.90;99.90;;;;;;4933125;29;20630;-63
2022/12/12 08:17:44;;;;;;;1.17;1.17;;;-1.90;99.90;;;;;;4931369;29;20224;-63
2022/12/12 08:20:11;;;;;;;1.20;1.20;;;-1.80;99.90;;;;;;4931458;29;20643;-62
2022/12/12 08:22:38;;;;;;;1.20;1.10;;;-1.70;99.90;;;;;;4929554;28;20230;-63
2022/12/12 08:25:06;;;;;;;1.23;1.23;;;-1.70;99.90;;;;;;4931825;29;20759;-63
2022/12/12 08:27:35;;;;;;;1.27;1.17;;;-1.60;99.90;;;;;;4931777;28;20235;-62
2022/12/12 08:30:02;;;;;;;1.30;1.30;;;-1.50;99.90;;;;;;4931409;28;20721;-62
2022/12/12 08:32:28;;;;;;;1.17;1.15;;;-1.50;99.90;;;;;;4929200;29;20214;-63
2022/12/12 08:34:57;;;;;;;1.20;1.20;;;-1.40;99.90;;;;;;4931417;29;20224;-63
2022/12/12 08:37:29;;;;;;;1.15;1.15;;;-1.40;99.90;;;;;;4931212;28;20293;-62
2022/12/12 08:39:55;;;;;;;1.27;1.23;;;-1.30;99.90;;;;;;4931212;28;20287;-64
2022/12/12 08:42:22;;;;;;;1.13;1.13;;;-1.30;99.90;;;;;;4930337;28;20208;-65
2022/12/12 08:44:51;;;;;;;1.60;1.50;;;-1.20;99.90;;;;;;4939506;29;20208;-64
2022/12/12 08:47:17;;;;;;;0.95;0.95;;;-1.00;99.90;;;;;;4938613;29;20228;-64
2022/12/12 08:49:44;;;;;;;1.10;1.10;;;-1.00;99.90;;;;;;4930864;29;20576;-65
2022/12/12 08:52:11;;;;;;;1.10;1.10;;;-1.00;99.90;;;;;;4931554;28;20208;-64
2022/12/12 08:54:38;;;;;;;0.90;0.90;;;-0.90;99.90;;;;;;4931328;29;20212;-65
2022/12/12 08:57:05;;;;;;;1.10;1.10;;;-0.70;99.90;;;;;;4931501;28;20235;-63
2022/12/12 08:59:32;;;;;;;1.10;1.10;;;-0.60;99.90;;;;;;4931706;29;20294;-65
2022/12/12 09:02:00;;;;;;;1.20;1.20;;;-0.40;99.90;;;;;;4932748;29;20271;-62
2022/12/12 09:04:26;;;;;;;1.17;1.17;;;-0.40;99.90;;;;;;4934013;28;20661;-64
2022/12/12 09:06:54;;;;;;;1.30;1.20;;;-0.20;99.90;;;;;;4932582;29;20216;-63
2022/12/12 09:09:21;;;;;;;1.47;1.37;;;-0.10;99.90;;;;;;4930915;29;20690;-63
2022/12/12 09:11:48;;;;;;;1.70;1.60;;;-0.10;99.90;;;;;;4931670;29;20215;-64
2022/12/12 09:14:15;;;;;;;1.50;1.40;;;-0.10;99.90;;;;;;4931028;28;20215;-63
2022/12/12 09:16:42;;;;;;;1.33;1.30;;;-0.10;99.90;;;;;;4931348;29;20603;-64
2022/12/12 09:19:10;;;;;;;1.20;1.20;;;0.00;99.90;;;;;;4931147;28;20208;-64
2022/12/12 09:21:37;;;;;;;1.30;1.30;;;-0.10;99.90;;;;;;4930886;29;20200;-64
2022/12/12 09:24:04;;;;;;;1.70;1.60;;;-0.10;99.90;;;;;;4930874;29;20668;-64
2022/12/12 09:26:31;;;;;;;1.75;1.65;;;-0.10;99.90;;;;;;4931435;29;20597;-64
2022/12/12 09:28:57;;;;;;;1.70;1.60;;;-0.10;99.90;;;;;;4930996;28;20208;-63
2022/12/12 09:31:24;;;;;;;1.70;1.60;;;0.00;99.90;;;;;;4931100;28;20315;-63
2022/12/12 09:33:51;;;;;;;1.87;1.70;;;0.00;99.90;;;;;;4930212;29;20215;-64
2022/12/12 09:36:19;;;;;;;1.80;1.70;;;0.30;99.90;;;;;;4930077;28;20210;-63
2022/12/12 09:38:46;;;;;;;2.10;2.00;;;0.40;99.90;;;;;;4937174;28;20207;-64
2022/12/12 09:41:17;;;;;;;2.03;1.93;;;0.50;99.90;;;;;;4943671;28;20222;-65
2022/12/12 09:43:51;;;;;;;2.30;2.20;;;0.40;99.90;;;;;;4930428;29;20212;-63
2022/12/12 09:46:30;;;;;;;2.00;1.90;;;0.50;99.90;;;;;;4930318;28;20269;-62
2022/12/12 09:49:04;;;;;;;1.90;1.80;;;0.60;99.90;;;;;;4924731;28;20210;-65
2022/12/12 09:51:33;;;;;;;2.43;2.33;;;0.60;99.90;;;;;;4937427;28;20211;-65
2022/12/12 09:53:59;;;;;;;2.50;2.30;;;0.40;99.90;;;;;;4940441;28;20204;-65
2022/12/12 09:56:36;;;;;;;2.33;2.22;;;0.30;99.90;;;;;;4931132;28;20204;-63
2022/12/12 09:59:09;;;;;;;2.40;2.30;;;0.20;99.90;;;;;;4927593;29;20204;-64
2022/12/12 10:01:42;;;;;;;2.40;2.23;;;0.10;99.90;;;;;;4930447;28;20262;-64
2022/12/12 10:04:20;;;;;;;2.37;2.27;;;0.20;99.90;;;;;;4930034;28;20204;-65
2022/12/12 10:06:57;;;;;;;2.70;2.60;;;0.20;99.90;;;;;;4930541;29;20226;-63
2022/12/12 10:09:44;;;;;;;2.20;2.10;;;0.20;99.90;;;;;;4930423;28;20204;-64
2022/12/12 10:12:14;;;;;;;2.53;2.40;;;0.20;99.90;;;;;;4930126;29;20295;-66
2022/12/12 10:14:44;;;;;;;2.67;2.57;;;0.40;99.90;;;;;;4930239;29;20211;-64
2022/12/12 10:17:14;;;;;;;2.50;2.40;;;0.70;99.90;;;;;;4931287;28;20289;-62
2022/12/12 10:19:48;;;;;;;2.50;2.40;;;0.70;99.90;;;;;;4929918;29;20200;-63
2022/12/12 10:22:23;;;;;;;2.50;2.40;;;0.70;99.90;;;;;;4930116;28;20270;-64
2022/12/12 10:24:55;;;;;;;2.77;2.57;;;0.70;99.90;;;;;;4933007;28;20212;-65
2022/12/12 10:27:23;;;;;;;2.73;2.53;;;0.90;99.90;;;;;;4932853;29;20224;-64
2022/12/12 10:29:50;;;;;;;2.60;2.40;;;0.80;99.90;;;;;;4931247;29;20210;-62
2022/12/12 10:32:29;;;;;;;2.87;2.70;;;0.80;99.90;;;;;;4933060;29;20212;-64
2022/12/12 10:35:09;;;;;;;2.50;2.40;;;0.90;99.90;;;;;;4929411;29;20204;-63
2022/12/12 10:37:45;;;;;;;2.50;2.40;;;0.90;99.90;;;;;;4928196;29;20232;-63
2022/12/12 10:40:28;;;;;;;3.07;2.87;;;0.70;99.90;;;;;;4933030;28;20204;-64
2022/12/12 10:42:59;;;;;;;5.17;4.87;;;0.70;99.90;;;;;;4933464;29;20635;-64
2022/12/12 10:45:40;;;;;;;5.13;4.83;;;0.80;99.90;;;;;;4933008;28;20231;-64
2022/12/12 10:48:07;;;;;;;2.87;2.70;;;1.00;99.90;;;;;;4933050;29;20224;-62
2022/12/12 10:50:38;;;;;;;2.67;2.58;;;1.30;99.90;;;;;;4933281;29;20597;-64
2022/12/12 10:53:09;;;;;;;2.73;2.63;;;1.20;99.90;;;;;;4933129;29;20232;-63
2022/12/12 10:55:41;;;;;;;3.17;2.97;;;1.00;99.90;;;;;;4929957;28;20208;-64
2022/12/12 10:58:08;;;;;;;2.93;2.73;;;0.70;99.90;;;;;;4933631;29;20240;-62
2022/12/12 11:00:39;;;;;;;2.70;2.60;;;0.70;99.90;;;;;;4940027;29;20659;-65
2022/12/12 11:03:23;;;;;;;2.90;2.70;;;0.70;99.90;;;;;;4936231;28;20212;-63
2022/12/12 11:05:50;;;;;;;2.70;2.60;;;0.80;99.90;;;;;;4929660;29;20708;-65
2022/12/12 11:08:22;;;;;;;2.80;2.70;;;0.80;99.90;;;;;;4930571;29;20744;-65
2022/12/12 11:11:00;;;;;;;2.70;2.60;;;0.90;99.90;;;;;;4930535;28;20296;-65
2022/12/12 11:13:27;;;;;;;2.77;2.67;;;0.90;99.90;;;;;;4932116;29;20211;-65
2022/12/12 11:15:58;;;;;;;2.50;2.40;;;0.80;99.90;;;;;;4932194;28;20212;-62
2022/12/12 11:18:26;;;;;;;2.37;2.27;;;0.90;99.90;;;;;;4932567;28;20724;-65
2022/12/12 11:21:03;;;;;;;2.50;2.40;;;1.00;99.90;;;;;;4932790;28;20223;-63
2022/12/12 11:23:33;;;;;;;2.53;2.43;;;1.10;99.90;;;;;;4931588;29;20204;-63
2022/12/12 11:26:03;;;;;;;2.57;2.47;;;1.10;99.90;;;;;;4929674;28;20212;-63
2022/12/12 11:28:35;;;;;;;2.67;2.57;;;1.10;99.90;;;;;;4931216;29;20231;-63
2022/12/12 11:31:05;;;;;;;2.23;2.13;;;1.30;99.90;;;;;;4930224;29;20282;-64
2022/12/12 11:33:35;;;;;;;3.10;2.90;;;1.30;99.90;;;;;;4930966;28;20212;-65
2022/12/12 11:36:05;;;;;;;3.20;3.00;;;1.30;99.90;;;;;;4932494;29;20334;-65
2022/12/12 11:38:39;;;;;;;2.73;2.63;;;1.30;99.90;;;;;;4928796;28;20232;-65
2022/12/12 11:41:09;;;;;;;2.53;2.43;;;1.20;99.90;;;;;;4930211;29;20208;-63
2022/12/12 11:43:38;;;;;;;3.00;2.80;;;1.00;99.90;;;;;;4936178;29;20204;-65
2022/12/12 11:46:07;;;;;;;3.30;3.10;;;1.10;99.90;;;;;;4946474;28;20808;-64
2022/12/12 11:48:43;;;;;;;3.30;3.10;;;1.10;99.90;;;;;;4937757;28;20220;-64
2022/12/12 11:51:11;;;;;;;3.13;2.92;;;1.10;99.90;;;;;;4932923;29;20222;-64
2022/12/12 11:53:43;;;;;;;3.27;3.07;;;1.10;99.90;;;;;;4932121;29;20208;-63
2022/12/12 11:56:21;;;;;;;3.10;2.90;;;1.10;99.90;;;;;;4932370;28;20208;-63
2022/12/12 11:58:55;;;;;;;2.87;2.70;;;1.10;99.90;;;;;;4930384;28;20232;-64
2022/12/12 12:01:29;;;;;;;3.10;2.90;;;1.10;99.90;;;;;;4932717;28;20380;-62
2022/12/12 12:04:15;;;;;;;3.20;3.00;;;1.10;99.90;;;;;;4931777;29;20584;-64
2022/12/12 12:07:00;;;;;;;2.90;2.80;;;0.90;99.90;;;;;;4931759;29;20231;-63
2022/12/12 12:09:35;;;;;;;3.13;2.93;;;0.80;99.90;;;;;;4932691;29;20591;-63
2022/12/12 12:12:10;;;;;;;2.93;2.83;;;0.80;99.90;;;;;;4930575;28;20204;-63
2022/12/12 12:14:50;;;;;;;2.50;2.40;;;1.00;99.90;;;;;;4927467;28;20277;-64
2022/12/12 12:17:30;;;;;;;2.42;2.33;;;1.00;99.90;;;;;;4932695;28;20232;-64
2022/12/12 12:20:07;;;;;;;2.77;2.67;;;1.10;99.90;;;;;;4930192;29;20204;-63
2022/12/12 12:22:48;;;;;;;2.90;2.80;;;1.10;99.90;;;;;;4938856;28;20211;-63
2022/12/12 12:25:30;;;;;;;2.67;2.47;;;1.00;99.90;;;;;;4932263;28;20218;-64
2022/12/12 12:28:13;;;;;;;2.60;2.50;;;1.00;99.90;;;;;;4930454;29;20665;-63
2022/12/12 12:30:53;;;;;;;2.60;2.50;;;1.10;99.90;;;;;;4931646;29;20216;-64
2022/12/12 12:33:45;;;;;;;3.00;2.80;;;1.10;99.90;;;;;;4931702;29;20208;-65
2022/12/12 12:36:18;;;;;;;3.20;3.00;;;1.10;99.90;;;;;;4931640;28;20212;-63
2022/12/12 12:38:56;;;;;;;2.70;2.60;;;1.10;99.90;;;;;;4932599;28;20597;-63
2022/12/12 12:41:35;;;;;;;2.63;2.53;;;1.10;99.90;;;;;;4931037;28;20586;-64
2022/12/12 12:44:13;;;;;;;2.80;2.70;;;1.10;99.90;;;;;;4928679;28;20210;-64
2022/12/12 12:46:47;;;;;;;2.53;2.43;;;1.20;99.90;;;;;;4931044;28;20321;-63
2022/12/12 12:49:19;;;;;;;3.07;2.87;;;1.20;99.90;;;;;;4931604;28;20676;-63
2022/12/12 12:51:50;;;;;;;2.87;2.77;;;1.20;99.90;;;;;;4931989;29;20291;-64
2022/12/12 12:54:22;;;;;;;3.27;3.07;;;1.20;99.90;;;;;;4931310;28;20687;-63
2022/12/12 12:56:56;;;;;;;3.20;3.00;;;1.20;99.90;;;;;;4931750;28;20722;-65
2022/12/12 12:59:27;;;;;;;3.00;2.80;;;1.30;99.90;;;;;;4932314;28;20223;-62
2022/12/12 13:01:55;;;;;;;3.00;2.80;;;1.30;99.90;;;;;;4932048;29;20583;-63
2022/12/12 13:04:26;;;;;;;5.22;4.93;;;1.30;99.90;;;;;;4931079;28;20204;-62
2022/12/12 13:06:58;;;;;;;3.78;3.58;;;1.40;99.90;;;;;;4933693;29;20224;-63
2022/12/12 13:09:32;;;;;;;3.10;2.90;;;1.40;99.90;;;;;;4932488;28;20290;-64
2022/12/12 13:12:05;;;;;;;3.13;2.93;;;1.50;99.90;;;;;;4930369;28;20239;-64
2022/12/12 13:14:40;;;;;;;3.13;2.93;;;1.40;99.90;;;;;;4935563;28;20243;-62
2022/12/12 13:17:15;;;;;;;3.20;3.00;;;1.30;99.90;;;;;;4938760;28;20236;-63
2022/12/12 13:19:45;;;;;;;3.30;3.10;;;1.30;99.90;;;;;;4929131;29;20199;-63
2022/12/12 13:22:16;;;;;;;3.20;3.00;;;1.30;99.90;;;;;;4936718;28;20650;-63
2022/12/12 13:24:49;;;;;;;3.23;3.03;;;1.40;99.90;;;;;;4930725;29;20208;-64
2022/12/12 13:27:24;;;;;;;3.20;3.00;;;1.40;99.90;;;;;;4931074;29;20227;-64